Terminal Aerodrome Forecast
Issued by NWS Charleston, WV

Current Version | Previous Version | Text Only | Print | Product List | Glossary Off
Versions: 1 2 3 4 5 6 7 8 9 10 11 12 13 14 15 16 17 18 19 20 21 22 23 24 25 26

000
FTUS41 KRLX 191750
TAFBKW
TAF
KBKW 191750Z 1918/2018 26010KT 6SM -RA SCT020 BKN050 OVC100
     FM192100 26008KT P6SM BKN150
     FM200200 21004KT P6SM SCT035
     FM201400 VRB04KT P6SM SCT050=

USA.gov is the U.S. government's official web portal to all federal, state and local government web resources and services.